Time;durP1;ratioP1;P1;durP2;ratioP2;P2;SDS_P1;SDS_P2;PMS_P1;PMS_P2;Temp;Humidity;BMP_temperature;BMP_pressure;BME280_temperature;BME280_humidity;BME280_pressure;Samples;Min_cycle;Max_cycle;Signal;HPM_P1;HPM_P2
2021/05/14 00:00:08;;;;;;;0.88;0.88;;;;;;;8.84;77.47;98227.44;5074676;28;20053;-80
2021/05/14 00:02:34;;;;;;;1.42;0.95;;;;;;;8.91;77.16;98232.91;5073701;28;20667;-79
2021/05/14 00:05:01;;;;;;;0.70;0.70;;;;;;;8.95;77.45;98234.19;5073400;28;20049;-79
2021/05/14 00:07:37;;;;;;;2.80;0.60;;;;;;;8.94;77.29;98239.81;5073992;28;20048;-80
2021/05/14 00:10:04;;;;;;;0.93;0.60;;;;;;;8.84;77.68;98227.44;5073837;28;20048;-80
2021/05/14 00:12:30;;;;;;;0.75;0.60;;;;;;;8.92;77.45;98244.59;5073314;28;20056;-78
2021/05/14 00:14:57;;;;;;;0.90;0.80;;;;;;;8.81;77.46;98230.53;5073679;28;20068;-79
2021/05/14 00:17:23;;;;;;;2.80;0.60;;;;;;;8.82;77.18;98228.66;5074029;28;20067;-79
2021/05/14 00:19:49;;;;;;;0.90;0.80;;;;;;;8.73;78.12;98240.69;5073939;28;20060;-79
2021/05/14 00:22:16;;;;;;;0.70;0.60;;;;;;;8.84;78.04;98242.88;5073292;28;20049;-79
2021/05/14 00:24:42;;;;;;;2.20;0.80;;;;;;;8.71;78.58;98238.16;5072984;28;20049;-78
2021/05/14 00:27:09;;;;;;;1.25;0.77;;;;;;;8.70;78.19;98230.25;5072996;28;20044;-79
2021/05/14 00:29:35;;;;;;;0.57;0.57;;;;;;;8.62;78.67;98229.34;5073657;28;20056;-79
2021/05/14 00:32:01;;;;;;;2.45;0.65;;;;;;;8.57;78.97;98234.50;5072680;28;20052;-80
2021/05/14 00:34:27;;;;;;;2.70;0.82;;;;;;;8.63;78.71;98225.59;5073601;28;20045;-80
2021/05/14 00:36:54;;;;;;;1.05;0.80;;;;;;;8.80;78.33;98247.84;5074049;28;20048;-80
2021/05/14 00:39:21;;;;;;;0.65;0.65;;;;;;;8.73;78.82;98240.69;5073454;28;20400;-80
2021/05/14 00:41:47;;;;;;;0.73;0.70;;;;;;;8.76;78.50;98243.84;5073304;28;20060;-80
2021/05/14 00:44:28;;;;;;;0.95;0.77;;;;;;;8.73;78.56;98246.97;5070540;28;20052;-80
2021/05/14 00:46:54;;;;;;;1.08;0.90;;;;;;;8.73;79.00;98246.09;5072900;28;20407;-81
2021/05/14 00:49:21;;;;;;;1.33;0.63;;;;;;;8.56;78.82;98224.69;5072703;28;20507;-81
2021/05/14 00:51:47;;;;;;;0.50;0.50;;;;;;;8.60;79.00;98230.59;5073073;28;20059;-81
2021/05/14 00:54:15;;;;;;;2.47;1.10;;;;;;;8.72;79.29;98239.84;5073127;28;20385;-81
2021/05/14 00:56:43;;;;;;;2.15;0.80;;;;;;;8.68;79.77;98243.97;5071895;28;20049;-81
2021/05/14 00:59:09;;;;;;;0.90;0.85;;;;;;;8.68;79.96;98238.56;5071718;28;20049;-81
2021/05/14 01:01:35;;;;;;;1.40;1.00;;;;;;;8.62;79.22;98233.94;5073444;28;20048;-81
2021/05/14 01:04:02;;;;;;;1.30;1.10;;;;;;;8.72;79.24;98237.16;5073101;28;20091;-81
2021/05/14 01:06:28;;;;;;;4.57;1.10;;;;;;;8.63;78.96;98217.47;5072915;28;20055;-81
2021/05/14 01:08:58;;;;;;;2.17;1.25;;;;;;;8.78;78.79;98236.34;5072714;28;20048;-81
2021/05/14 01:11:24;;;;;;;1.65;1.20;;;;;;;8.78;79.07;98239.06;5073245;28;20480;-80
2021/05/14 01:13:51;;;;;;;1.65;1.50;;;;;;;8.68;79.04;98238.56;5072415;28;20048;-81
2021/05/14 01:16:18;;;;;;;1.67;1.10;;;;;;;8.59;79.82;98234.31;5072390;28;20477;-80
2021/05/14 01:18:44;;;;;;;2.25;1.35;;;;;;;8.58;80.29;98229.94;5072556;28;20048;-80
2021/05/14 01:21:11;;;;;;;4.22;1.20;;;;;;;8.62;80.18;98234.75;5073138;28;20047;-81
2021/05/14 01:24:01;;;;;;;1.08;0.98;;;;;;;8.67;80.32;98235.03;5071976;28;20064;-81
2021/05/14 01:26:27;;;;;;;3.58;1.17;;;;;;;8.55;80.27;98227.59;5062108;28;20049;-81
2021/05/14 01:28:54;;;;;;;0.98;0.80;;;;;;;8.63;80.67;98225.59;5072714;28;20047;-81
2021/05/14 01:31:21;;;;;;;3.25;0.95;;;;;;;8.64;80.23;98237.28;5072873;28;20048;-81
2021/05/14 01:33:49;;;;;;;0.88;0.70;;;;;;;8.59;81.08;98212.66;5072707;28;20044;-81
2021/05/14 01:36:16;;;;;;;3.05;0.85;;;;;;;8.69;79.96;98218.56;5072932;28;20106;-81
2021/05/14 01:38:43;;;;;;;0.93;0.77;;;;;;;8.80;80.55;98233.44;5072896;28;20070;-80
2021/05/14 01:41:09;;;;;;;1.20;0.88;;;;;;;8.67;80.41;98216.06;5072423;28;20049;-81
2021/05/14 01:43:36;;;;;;;1.00;0.77;;;;;;;8.73;80.07;98228.00;5072786;28;20052;-81
2021/05/14 01:46:03;;;;;;;4.45;0.93;;;;;;;8.66;79.73;98216.25;5052443;28;20087;-81
2021/05/14 01:48:29;;;;;;;3.00;1.10;;;;;;;8.57;80.22;98201.19;5052547;28;20048;-81
2021/05/14 01:50:59;;;;;;;1.45;0.93;;;;;;;8.60;80.62;98215.16;5052215;28;20053;-81
2021/05/14 01:53:26;;;;;;;1.38;0.88;;;;;;;8.58;80.92;98210.97;5052882;28;20052;-81
2021/05/14 01:55:52;;;;;;;0.88;0.80;;;;;;;8.63;81.44;98213.94;5068031;28;20051;-81
2021/05/14 01:58:19;;;;;;;2.22;1.00;;;;;;;8.40;81.24;98208.69;5072819;28;20044;-81
2021/05/14 02:00:47;;;;;;;1.25;0.90;;;;;;;8.55;80.34;98211.34;5071552;28;20526;-81
2021/05/14 02:03:13;;;;;;;0.70;0.70;;;;;;;8.51;79.10;98197.38;5071442;28;20083;-81
2021/05/14 02:05:39;;;;;;;1.20;0.85;;;;;;;8.54;79.59;98207.81;5072067;28;20049;-81
2021/05/14 02:08:35;;;;;;;0.60;0.60;;;;;;;8.49;80.73;98212.97;5072166;28;20427;-79
2021/05/14 02:11:03;;;;;;;1.27;0.90;;;;;;;8.41;80.22;98207.66;5062423;28;20079;-79
2021/05/14 02:13:30;;;;;;;1.30;1.08;;;;;;;8.32;79.92;98198.81;5075076;28;20045;-80
2021/05/14 02:15:57;;;;;;;2.13;1.00;;;;;;;8.44;78.96;98218.97;5075847;28;20056;-80
2021/05/14 02:18:27;;;;;;;2.85;0.90;;;;;;;8.31;80.61;98214.25;5076189;28;20557;-80
2021/05/14 02:20:53;;;;;;;1.25;0.77;;;;;;;8.15;80.88;98190.13;5075884;28;20056;-81
2021/05/14 02:23:20;;;;;;;0.85;0.82;;;;;;;8.08;80.35;98202.75;5076468;28;20055;-80
2021/05/14 02:25:46;;;;;;;2.65;0.82;;;;;;;7.97;80.38;98194.13;5055796;28;20049;-80
2021/05/14 02:28:14;;;;;;;1.75;0.90;;;;;;;8.07;80.27;98204.63;5069555;28;20041;-80
2021/05/14 02:30:40;;;;;;;1.65;0.77;;;;;;;8.14;79.50;98210.09;5076127;28;20361;-80
2021/05/14 02:33:07;;;;;;;1.83;0.90;;;;;;;7.97;79.17;98199.53;5075687;28;20434;-80
2021/05/14 02:35:34;;;;;;;0.80;0.80;;;;;;;7.91;80.22;98223.81;5075673;28;20048;-80
2021/05/14 02:38:00;;;;;;;3.60;1.02;;;;;;;7.94;80.40;98218.84;5074797;28;20056;-79
2021/05/14 02:40:27;;;;;;;1.95;0.93;;;;;;;8.09;80.22;98221.50;5075615;28;20059;-79
2021/05/14 02:42:53;;;;;;;0.90;0.88;;;;;;;8.01;80.41;98216.25;5075789;28;20052;-80
2021/05/14 02:45:20;;;;;;;1.50;1.00;;;;;;;7.85;80.41;98190.25;5075869;28;20496;-80
2021/05/14 02:47:47;;;;;;;2.03;1.00;;;;;;;7.76;80.54;98194.91;5076191;28;20048;-80
2021/05/14 02:50:14;;;;;;;0.95;0.90;;;;;;;7.82;81.02;98209.56;5075635;28;20102;-80
2021/05/14 02:52:40;;;;;;;0.70;0.70;;;;;;;7.91;80.83;98213.00;5076066;28;20057;-79
2021/05/14 02:55:08;;;;;;;1.00;0.60;;;;;;;7.90;80.51;98209.47;5060152;28;20053;-80
2021/05/14 02:57:35;;;;;;;0.60;0.60;;;;;;;7.73;79.94;98199.88;5056295;28;20049;-80
2021/05/14 03:00:01;;;;;;;2.22;0.88;;;;;;;7.60;80.47;98201.41;5055781;28;20057;-80
2021/05/14 03:02:28;;;;;;;2.03;1.02;;;;;;;7.56;80.72;98219.03;5055628;28;20470;-79
2021/05/14 03:04:55;;;;;;;1.58;0.95;;;;;;;7.56;81.26;98215.50;5058612;28;20044;-80
2021/05/14 03:07:21;;;;;;;1.17;0.85;;;;;;;7.39;82.04;98204.03;5075652;28;20048;-80
2021/05/14 03:09:47;;;;;;;1.98;0.90;;;;;;;7.56;81.74;98219.03;5075555;28;20056;-80
2021/05/14 03:12:14;;;;;;;2.38;0.93;;;;;;;7.51;81.92;98201.69;5075024;28;20052;-80
2021/05/14 03:14:40;;;;;;;1.00;1.00;;;;;;;7.62;81.51;98215.56;5075111;28;20106;-80
2021/05/14 03:17:06;;;;;;;1.42;0.90;;;;;;;7.71;81.02;98215.47;5075599;28;20044;-80
2021/05/14 03:19:33;;;;;;;1.30;1.20;;;;;;;7.64;80.92;98199.16;5075460;28;20056;-80
2021/05/14 03:22:00;;;;;;;3.33;1.17;;;;;;;7.72;81.37;98225.25;5075371;28;20048;-79
2021/05/14 03:24:26;;;;;;;1.27;0.93;;;;;;;7.72;81.33;98217.13;5075347;28;20446;-80
2021/05/14 03:26:53;;;;;;;1.38;0.90;;;;;;;7.57;81.64;98203.63;5074805;28;20435;-80
2021/05/14 03:29:20;;;;;;;2.42;1.13;;;;;;;7.66;82.00;98217.91;5075127;28;20560;-81
2021/05/14 03:31:46;;;;;;;2.58;1.15;;;;;;;7.50;82.51;98217.09;5074908;28;20496;-80
2021/05/14 03:34:13;;;;;;;1.27;0.73;;;;;;;7.48;82.75;98219.13;5074708;28;20052;-80
2021/05/14 03:36:40;;;;;;;6.70;1.00;;;;;;;7.42;83.20;98225.28;5075098;28;20450;-80
2021/05/14 03:39:08;;;;;;;2.78;1.00;;;;;;;7.48;83.14;98221.00;5075107;28;20064;-80
2021/05/14 03:41:45;;;;;;;3.00;0.90;;;;;;;7.57;82.91;98231.53;5073373;28;20049;-80
2021/05/14 03:44:11;;;;;;;2.13;0.80;;;;;;;7.59;82.30;98221.38;5056384;28;20057;-81
2021/05/14 03:46:38;;;;;;;0.98;0.95;;;;;;;7.54;81.97;98212.13;5074855;28;20533;-81
2021/05/14 03:49:05;;;;;;;1.58;0.98;;;;;;;7.56;82.05;98216.34;5074815;28;20045;-81
2021/05/14 03:51:34;;;;;;;2.22;0.90;;;;;;;7.73;81.67;98218.81;5074371;28;20057;-81
2021/05/14 03:54:01;;;;;;;1.83;1.08;;;;;;;7.64;82.19;98225.38;5074364;28;20041;-81
2021/05/14 03:56:27;;;;;;;2.42;1.45;;;;;;;7.56;82.45;98231.72;5074375;28;20048;-81
2021/05/14 03:58:53;;;;;;;2.20;1.33;;;;;;;7.56;82.63;98220.91;5074933;28;20488;-81
2021/05/14 04:01:20;;;;;;;4.38;0.98;;;;;;;7.51;82.25;98207.97;5074174;28;20051;-81
2021/05/14 04:03:46;;;;;;;1.00;0.80;;;;;;;7.60;81.31;98208.66;5074746;28;20044;-81
2021/05/14 04:06:12;;;;;;;0.95;0.90;;;;;;;7.55;82.46;98222.75;5074198;28;20052;-81
2021/05/14 04:08:39;;;;;;;1.35;1.10;;;;;;;7.69;81.61;98222.94;5074466;28;20070;-80
2021/05/14 04:11:41;;;;;;;2.97;1.10;;;;;;;7.71;82.06;98226.31;5074099;28;20048;-79
2021/05/14 04:16:54;;;;;;;3.50;0.80;;;;;;;7.66;83.30;98229.56;5074169;28;20100;-78
2021/05/14 04:19:20;;;;;;;0.88;0.88;;;;;;;7.67;82.62;98233.13;5074066;28;20044;-80
2021/05/14 04:21:46;;;;;;;5.15;1.00;;;;;;;7.75;83.05;98217.63;5074396;28;20052;-80
2021/05/14 04:24:13;;;;;;;4.57;0.90;;;;;;;7.81;82.65;98216.00;5073307;28;20105;-80
2021/05/14 04:26:42;;;;;;;1.30;1.20;;;;;;;7.92;82.43;98209.28;5072677;28;20090;-83
2021/05/14 04:29:08;;;;;;;1.77;1.38;;;;;;;8.04;82.28;98209.59;5071554;28;20043;-83
2021/05/14 04:31:35;;;;;;;1.42;0.90;;;;;;;8.05;82.29;98227.50;5070971;28;20048;-83
2021/05/14 04:34:01;;;;;;;5.57;1.17;;;;;;;8.20;81.62;98224.75;5067627;28;20557;-83
2021/05/14 04:36:27;;;;;;;2.08;1.00;;;;;;;8.29;81.37;98237.13;5071944;28;20045;-83
2021/05/14 04:38:54;;;;;;;1.25;1.13;;;;;;;8.32;80.93;98225.91;5072038;28;20053;-85
2021/05/14 04:41:20;;;;;;;9.23;1.23;;;;;;;8.18;81.25;98237.66;5071880;28;20056;-83
2021/05/14 04:43:47;;;;;;;1.30;1.10;;;;;;;8.22;80.67;98234.38;5071938;28;20048;-83
2021/05/14 04:46:14;;;;;;;5.05;1.25;;;;;;;8.32;80.54;98240.31;5071368;28;20052;-83
2021/05/14 04:48:40;;;;;;;2.33;1.30;;;;;;;8.37;80.22;98234.31;5071678;28;20051;-83
2021/05/14 04:51:07;;;;;;;1.48;1.00;;;;;;;8.31;79.93;98224.25;5067118;28;20133;-83
2021/05/14 04:53:36;;;;;;;2.35;1.08;;;;;;;8.35;80.08;98241.78;5060494;28;20060;-83
2021/05/14 04:56:04;;;;;;;1.52;1.20;;;;;;;8.14;79.52;98219.09;5072417;28;20052;-84
2021/05/14 04:58:32;;;;;;;1.95;1.10;;;;;;;8.12;79.94;98215.72;5073850;28;20051;-83
2021/05/14 05:00:59;;;;;;;1.80;1.25;;;;;;;8.11;80.99;98237.56;5074127;28;20098;-84
2021/05/14 05:03:26;;;;;;;2.40;0.98;;;;;;;8.11;81.05;98234.84;5073554;28;20040;-84
2021/05/14 05:05:55;;;;;;;3.08;1.40;;;;;;;8.20;80.85;98230.16;5073148;28;20053;-84
2021/05/14 05:08:22;;;;;;;5.30;1.15;;;;;;;8.45;79.94;98233.38;5072858;28;20044;-83
2021/05/14 05:10:48;;;;;;;1.85;1.20;;;;;;;8.92;79.01;98228.34;5072391;28;20048;-83
2021/05/14 05:13:16;;;;;;;2.42;1.17;;;;;;;9.57;76.09;98226.22;5072724;28;20040;-83
2021/05/14 05:15:42;;;;;;;2.00;1.15;;;;;;;10.16;73.57;98218.50;5072840;28;20641;-84
2021/05/14 05:18:10;;;;;;;1.67;1.27;;;;;;;10.79;71.65;98231.75;5072857;28;20052;-84
2021/05/14 05:20:36;;;;;;;1.20;1.08;;;;;;;11.37;69.43;98233.81;5073147;28;20090;-84
2021/05/14 05:23:02;;;;;;;6.15;1.27;;;;;;;11.73;67.89;98226.13;5073416;28;20052;-85
2021/05/14 05:25:29;;;;;;;3.75;1.15;;;;;;;12.09;67.18;98233.78;5073370;28;20045;-84
2021/05/14 05:27:55;;;;;;;1.48;0.98;;;;;;;12.16;65.78;98223.69;5073348;28;20090;-85
2021/05/14 05:30:24;;;;;;;1.30;1.02;;;;;;;12.24;65.26;98225.31;5068873;28;20445;-84
2021/05/14 05:32:53;;;;;;;4.60;1.15;;;;;;;12.68;63.94;98241.81;5067857;28;20053;-84
2021/05/14 05:35:21;;;;;;;2.85;1.17;;;;;;;12.71;62.04;98246.81;5062435;28;20045;-85
2021/05/14 05:37:48;;;;;;;2.13;1.10;;;;;;;12.95;61.98;98245.16;5069244;28;20494;-84
2021/05/14 05:40:14;;;;;;;1.17;0.95;;;;;;;12.80;61.94;98236.47;5073015;28;20049;-85
2021/05/14 05:42:41;;;;;;;1.23;1.08;;;;;;;12.95;60.88;98236.97;5073947;28;20514;-84
2021/05/14 05:45:08;;;;;;;3.15;1.10;;;;;;;13.18;60.94;98244.50;5076519;28;20480;-84
2021/05/14 05:47:35;;;;;;;1.90;1.20;;;;;;;13.52;60.05;98255.13;5077371;28;20121;-84
2021/05/14 05:50:04;;;;;;;1.38;0.90;;;;;;;13.54;59.73;98248.38;5077240;28;20309;-84
2021/05/14 05:52:33;;;;;;;2.45;1.17;;;;;;;13.83;58.34;98269.72;5076883;28;20090;-84
2021/05/14 05:55:08;;;;;;;3.00;1.00;;;;;;;13.54;58.96;98253.03;5076921;28;20418;-84
2021/05/14 05:57:46;;;;;;;2.13;0.85;;;;;;;13.88;58.09;98245.28;5066340;28;20095;-84
2021/05/14 06:00:19;;;;;;;2.67;0.75;;;;;;;14.02;58.15;98265.09;5074915;28;20056;-85
2021/05/14 06:02:46;;;;;;;1.48;1.00;;;;;;;14.04;57.13;98271.97;5075547;28;20437;-84
2021/05/14 06:05:15;;;;;;;2.33;0.85;;;;;;;14.08;57.33;98266.91;5074718;28;20114;-84
2021/05/14 06:07:42;;;;;;;0.88;0.73;;;;;;;14.22;57.01;98262.09;5074489;28;20055;-84
2021/05/14 06:10:10;;;;;;;1.00;1.00;;;;;;;14.45;55.89;98264.09;5074924;28;20056;-84
2021/05/14 06:12:36;;;;;;;1.05;0.90;;;;;;;14.69;55.73;98265.88;5073272;28;20049;-85
2021/05/14 06:15:03;;;;;;;2.50;0.80;;;;;;;14.30;55.41;98265.34;5073565;28;20131;-83
2021/05/14 06:17:31;;;;;;;5.90;1.35;;;;;;;13.80;56.75;98255.47;5075604;28;20488;-84
2021/05/14 06:20:01;;;;;;;1.48;0.90;;;;;;;13.30;59.11;98274.66;5074802;28;20412;-84
2021/05/14 06:22:27;;;;;;;5.50;0.98;;;;;;;13.18;59.92;98276.44;5076904;28;20052;-84
2021/05/14 06:24:54;;;;;;;3.50;0.65;;;;;;;13.30;59.89;98280.09;5074787;28;20105;-83
2021/05/14 06:27:20;;;;;;;4.05;0.90;;;;;;;13.65;58.25;98284.22;5057324;28;20060;-83
2021/05/14 06:29:47;;;;;;;5.53;0.90;;;;;;;13.95;57.78;98282.38;5074633;28;20049;-83
2021/05/14 06:32:13;;;;;;;6.03;0.93;;;;;;;13.52;58.38;98286.03;5074732;28;20048;-83
2021/05/14 06:34:39;;;;;;;2.45;1.00;;;;;;;13.69;58.36;98286.25;5073396;28;20051;-83
2021/05/14 06:37:06;;;;;;;1.05;0.80;;;;;;;13.65;57.38;98293.22;5074238;28;20053;-83
2021/05/14 06:39:35;;;;;;;1.40;0.70;;;;;;;13.41;58.54;98287.59;5074421;28;20121;-83
2021/05/14 06:42:02;;;;;;;2.08;0.60;;;;;;;13.31;58.50;98295.44;5074420;28;20468;-83
2021/05/14 06:44:28;;;;;;;0.52;0.50;;;;;;;12.95;59.58;98296.13;5073959;28;20052;-83
2021/05/14 06:46:55;;;;;;;1.70;0.73;;;;;;;13.16;60.08;98295.75;5074655;28;20056;-83
2021/05/14 06:49:22;;;;;;;1.10;0.70;;;;;;;13.37;59.43;98282.78;5074138;28;20052;-83
2021/05/14 06:51:48;;;;;;;4.03;1.00;;;;;;;13.53;58.81;98297.75;5074417;28;20056;-83
2021/05/14 06:54:15;;;;;;;5.70;0.90;;;;;;;13.65;58.64;98292.41;5059857;28;20048;-83
2021/05/14 06:56:41;;;;;;;2.10;0.93;;;;;;;13.74;58.87;98307.44;5074126;28;20049;-83
2021/05/14 06:59:10;;;;;;;4.82;0.90;;;;;;;14.65;55.68;98292.03;5073879;28;20064;-83
2021/05/14 07:01:37;;;;;;;3.78;0.52;;;;;;;15.74;54.09;98292.75;5073845;28;20494;-83
2021/05/14 07:04:18;;;;;;;1.73;0.80;;;;;;;15.92;52.36;98289.06;5073983;28;20377;-83
2021/05/14 07:06:44;;;;;;;1.23;0.68;;;;;;;16.41;49.19;98295.00;5071309;28;20048;-84
2021/05/14 07:09:12;;;;;;;0.50;0.47;;;;;;;16.63;49.83;98297.06;5073718;28;20493;-83
2021/05/14 07:11:38;;;;;;;0.60;0.57;;;;;;;15.68;50.42;98288.22;5072529;28;20048;-84
2021/05/14 07:14:04;;;;;;;4.47;0.85;;;;;;;15.32;51.96;98292.88;5073838;28;20407;-84
2021/05/14 07:16:32;;;;;;;2.92;0.90;;;;;;;15.72;51.46;98281.19;5073805;28;20048;-82
2021/05/14 07:18:59;;;;;;;1.88;0.73;;;;;;;16.13;50.96;98279.34;5073446;28;20059;-82
2021/05/14 07:21:25;;;;;;;1.35;0.65;;;;;;;16.73;50.50;98294.50;5072944;28;20060;-83
2021/05/14 07:23:51;;;;;;;1.85;0.70;;;;;;;16.84;49.41;98290.03;5073705;28;20052;-82
2021/05/14 07:26:20;;;;;;;1.08;0.70;;;;;;;15.80;51.28;98286.34;5072709;28;20492;-83
2021/05/14 07:28:47;;;;;;;1.20;0.65;;;;;;;14.97;53.96;98280.78;5060149;28;20076;-82
2021/05/14 07:31:13;;;;;;;2.25;0.60;;;;;;;15.37;54.75;98293.84;5069903;28;20048;-83
2021/05/14 07:33:44;;;;;;;3.45;0.80;;;;;;;15.68;52.46;98278.09;5073486;28;20135;-82
2021/05/14 07:36:11;;;;;;;0.98;0.70;;;;;;;16.14;51.84;98288.41;5073053;28;20048;-82
2021/05/14 07:38:37;;;;;;;1.70;0.90;;;;;;;16.34;50.69;98285.25;5073575;28;20106;-82
2021/05/14 07:41:03;;;;;;;1.15;0.50;;;;;;;15.65;51.32;98285.97;5072743;28;20568;-82
2021/05/14 07:43:30;;;;;;;3.90;0.60;;;;;;;15.92;52.56;98281.66;5065968;28;20108;-82
2021/05/14 07:45:56;;;;;;;1.85;0.60;;;;;;;16.51;50.32;98279.81;5056235;28;20090;-82
2021/05/14 07:48:22;;;;;;;1.45;0.40;;;;;;;16.72;50.35;98270.06;5073262;28;20048;-82
2021/05/14 07:50:51;;;;;;;1.45;0.45;;;;;;;16.77;49.89;98276.47;5073126;28;20048;-82
2021/05/14 07:53:20;;;;;;;0.73;0.30;;;;;;;16.55;50.45;98268.09;5072874;28;20496;-82
2021/05/14 07:55:48;;;;;;;3.33;0.40;;;;;;;16.40;52.55;98276.88;5072304;28;20075;-82
2021/05/14 07:58:14;;;;;;;5.65;0.50;;;;;;;16.65;48.31;98275.72;5073099;28;20049;-82
2021/05/14 08:00:40;;;;;;;1.95;0.40;;;;;;;16.51;48.64;98274.34;5072790;28;20049;-82
2021/05/14 08:03:07;;;;;;;0.40;0.20;;;;;;;16.62;50.14;98273.47;5060960;28;20044;-82
2021/05/14 08:05:33;;;;;;;1.23;0.45;;;;;;;16.41;48.67;98278.56;5072006;28;20048;-82
2021/05/14 08:08:08;;;;;;;0.88;0.40;;;;;;;15.98;50.36;98273.56;5071091;28;20091;-81
2021/05/14 08:10:36;;;;;;;0.63;0.47;;;;;;;16.07;50.56;98277.59;5072809;28;20067;-82
2021/05/14 08:13:02;;;;;;;1.55;0.40;;;;;;;15.72;50.31;98279.28;5072090;28;20076;-83
2021/05/14 08:15:29;;;;;;;0.40;0.32;;;;;;;15.99;51.02;98292.50;5072153;28;20512;-81
2021/05/14 08:17:55;;;;;;;2.15;0.47;;;;;;;16.22;50.68;98282.56;5072145;28;20079;-82
2021/05/14 08:20:22;;;;;;;5.13;0.70;;;;;;;16.34;49.65;98282.53;5072330;28;20075;-82
2021/05/14 08:22:49;;;;;;;1.83;0.57;;;;;;;15.89;51.44;98284.06;5072445;28;20047;-82
2021/05/14 08:25:16;;;;;;;2.85;0.50;;;;;;;16.06;50.65;98282.25;5064388;28;20098;-81
2021/05/14 08:27:44;;;;;;;2.90;0.60;;;;;;;16.34;49.09;98274.28;5072370;28;20079;-81
2021/05/14 08:30:12;;;;;;;1.85;0.50;;;;;;;16.59;48.35;98271.19;5072404;28;20040;-82
2021/05/14 08:32:39;;;;;;;3.25;0.47;;;;;;;16.69;47.70;98273.28;5072070;28;20434;-82
2021/05/14 08:35:07;;;;;;;2.50;0.50;;;;;;;17.06;49.50;98281.13;5071561;28;20415;-81
2021/05/14 08:37:34;;;;;;;1.40;0.52;;;;;;;17.15;49.00;98265.91;5072041;28;20049;-82
2021/05/14 08:40:00;;;;;;;1.45;0.60;;;;;;;17.10;46.08;98276.78;5070005;28;20055;-82
2021/05/14 08:42:30;;;;;;;0.38;0.30;;;;;;;16.80;47.63;98255.91;5072099;28;20173;-82
2021/05/14 08:44:57;;;;;;;0.68;0.40;;;;;;;16.39;49.05;98277.94;5071375;28;20089;-82
2021/05/14 08:47:24;;;;;;;3.88;0.50;;;;;;;15.79;48.83;98267.38;5052013;28;20413;-82
2021/05/14 08:49:50;;;;;;;1.63;0.60;;;;;;;15.83;49.47;98279.53;5057467;28;20125;-82
2021/05/14 08:52:18;;;;;;;1.75;0.63;;;;;;;16.30;50.08;98267.63;5071748;28;20048;-82
2021/05/14 08:54:46;;;;;;;1.70;0.57;;;;;;;16.98;47.69;98272.22;5071446;28;20570;-82
2021/05/14 08:57:13;;;;;;;0.45;0.30;;;;;;;17.39;45.94;98255.56;5071189;28;20105;-82
2021/05/14 08:59:40;;;;;;;0.30;0.30;;;;;;;17.25;45.47;98268.81;5071581;28;20040;-82
2021/05/14 09:05:22;;;;;;;;;;;;;;;16.43;50.69;98284.63;5057630;28;20040;-80
2021/05/14 09:07:49;;;;;;;1.90;0.40;;;;;;;16.33;50.05;98276.19;5073574;28;19924;-80
2021/05/14 09:10:16;;;;;;;0.75;0.30;;;;;;;16.15;50.52;98276.38;5071679;28;20051;-81
2021/05/14 09:12:44;;;;;;;0.93;0.50;;;;;;;15.70;50.73;98265.00;5071230;28;20126;-82
2021/05/14 09:15:28;;;;;;;0.40;0.40;;;;;;;15.28;50.40;98281.56;5053120;28;20052;-83
2021/05/14 09:18:12;;;;;;;9.88;0.47;;;;;;;15.77;50.06;98269.50;5060462;28;20125;-82
2021/05/14 09:20:40;;;;;;;0.40;0.30;;;;;;;15.75;49.20;98280.72;5070260;28;20053;-82
2021/05/14 09:23:32;;;;;;;0.32;0.30;;;;;;;15.98;48.94;98279.03;5071881;28;20105;-83
2021/05/14 09:26:00;;;;;;;0.40;0.30;;;;;;;15.86;47.98;98266.19;5072028;28;20048;-82
2021/05/14 09:28:29;;;;;;;0.73;0.30;;;;;;;16.40;48.91;98262.34;5071914;28;20048;-84
2021/05/14 09:31:12;;;;;;;1.52;0.30;;;;;;;16.42;46.18;98280.22;5072377;28;20404;-82
2021/05/14 09:33:40;;;;;;;0.52;0.40;;;;;;;16.17;47.49;98268.72;5072882;28;20056;-82
2021/05/14 09:36:08;;;;;;;1.17;0.30;;;;;;;16.05;47.94;98269.59;5072585;28;20044;-82
2021/05/14 09:38:42;;;;;;;1.08;0.32;;;;;;;16.85;46.86;98274.41;5072028;28;20040;-82
2021/05/14 09:41:25;;;;;;;0.30;0.30;;;;;;;17.28;46.43;98271.06;5072546;28;20052;-82
2021/05/14 09:44:00;;;;;;;0.20;0.20;;;;;;;17.65;46.15;98266.91;5052960;28;20408;-82
2021/05/14 09:46:30;;;;;;;0.52;0.20;;;;;;;18.20;43.99;98265.19;5053704;28;20049;-82
2021/05/14 09:48:59;;;;;;;0.32;0.20;;;;;;;18.25;41.91;98261.69;5052610;28;20377;-82
2021/05/14 09:51:26;;;;;;;0.50;0.30;;;;;;;18.39;44.47;98262.94;5069503;28;20059;-82
2021/05/14 09:53:53;;;;;;;1.65;0.30;;;;;;;18.55;41.88;98253.75;5072610;28;20053;-82
2021/05/14 09:56:26;;;;;;;1.67;0.43;;;;;;;17.98;42.78;98252.28;5072035;28;20049;-82
2021/05/14 09:58:55;;;;;;;1.95;0.60;;;;;;;17.54;44.59;98276.94;5072688;28;20048;-81
2021/05/14 10:01:31;;;;;;;3.22;0.40;;;;;;;16.70;47.16;98264.81;5072127;28;20052;-82
2021/05/14 10:07:01;;;;;;;1.02;0.22;;;;;;;16.40;47.40;98254.94;5054842;28;20054;-82
2021/05/14 10:09:28;;;;;;;0.65;0.30;;;;;;;16.58;46.75;98264.88;5072835;28;20076;-82
2021/05/14 10:11:55;;;;;;;0.30;0.30;;;;;;;16.60;46.08;98257.22;5072680;28;20048;-82
2021/05/14 10:14:22;;;;;;;0.38;0.38;;;;;;;17.22;44.00;98257.47;5072758;28;20051;-82
2021/05/14 10:17:01;;;;;;;0.30;0.30;;;;;;;17.46;44.42;98266.34;5072901;28;20097;-82
2021/05/14 10:19:29;;;;;;;0.30;0.30;;;;;;;16.92;44.86;98267.72;5072767;28;20049;-82
2021/05/14 10:21:56;;;;;;;1.23;0.28;;;;;;;17.17;44.35;98272.78;5053114;28;20150;-82
2021/05/14 10:24:39;;;;;;;1.95;0.30;;;;;;;16.88;43.74;98262.97;5069331;28;20055;-82
2021/05/14 10:27:16;;;;;;;0.57;0.30;;;;;;;17.05;44.53;98255.56;5072325;28;20056;-81
2021/05/14 10:29:44;;;;;;;0.22;0.20;;;;;;;16.88;45.26;98254.72;5073270;28;20055;-82
2021/05/14 10:32:11;;;;;;;1.27;0.30;;;;;;;17.04;43.42;98250.31;5076043;28;20052;-81
2021/05/14 10:34:38;;;;;;;0.43;0.30;;;;;;;16.90;44.90;98247.06;5076510;28;20409;-81
2021/05/14 10:37:09;;;;;;;0.30;0.20;;;;;;;16.93;43.75;98250.13;5075943;28;20056;-81
2021/05/14 10:39:38;;;;;;;0.28;0.20;;;;;;;17.12;44.10;98267.22;5075610;28;20402;-81
2021/05/14 10:42:07;;;;;;;0.20;0.20;;;;;;;17.09;44.49;98250.41;5076073;28;20123;-81
2021/05/14 10:44:53;;;;;;;0.50;0.20;;;;;;;17.03;44.23;98246.75;5075425;28;20064;-81
2021/05/14 10:47:47;;;;;;;0.40;0.40;;;;;;;17.00;45.18;98241.75;5060687;28;20045;-82
2021/05/14 10:50:31;;;;;;;0.20;0.20;;;;;;;16.83;43.58;98251.84;5075752;28;20053;-81
2021/05/14 10:53:40;;;;;;;0.20;0.20;;;;;;;17.01;45.06;98259.06;5073639;28;20435;-80
2021/05/14 10:56:27;;;;;;;0.20;0.20;;;;;;;17.17;44.08;98259.03;5066609;28;20052;-80
2021/05/14 10:58:54;;;;;;;0.70;0.28;;;;;;;17.56;43.72;98249.19;5058766;28;20053;-81
2021/05/14 11:01:37;;;;;;;2.13;0.35;;;;;;;17.91;41.41;98257.13;5075525;28;20052;-81
2021/05/14 11:04:05;;;;;;;0.17;0.10;;;;;;;17.50;42.83;98251.88;5072933;28;20059;-81
2021/05/14 11:06:43;;;;;;;0.47;0.28;;;;;;;17.42;42.04;98256.94;5073300;28;20043;-81
2021/05/14 11:09:10;;;;;;;0.50;0.30;;;;;;;17.01;42.89;98235.16;5071398;28;20058;-81
2021/05/14 11:11:58;;;;;;;0.17;0.17;;;;;;;17.55;41.12;98242.03;5073223;28;20450;-81
2021/05/14 11:14:25;;;;;;;0.47;0.30;;;;;;;17.55;41.53;98240.09;5060819;28;20053;-81
2021/05/14 11:16:52;;;;;;;1.10;0.17;;;;;;;17.63;41.96;98234.19;5073274;28;20052;-81
2021/05/14 11:19:23;;;;;;;0.80;0.30;;;;;;;17.77;41.84;98240.16;5073476;28;20041;-81
2021/05/14 11:22:11;;;;;;;0.28;0.28;;;;;;;17.97;40.93;98238.78;5072787;28;20048;-81
2021/05/14 11:24:41;;;;;;;1.17;0.20;;;;;;;17.77;43.45;98225.59;5073095;28;20055;-81
2021/05/14 11:27:10;;;;;;;0.40;0.40;;;;;;;17.43;43.59;98234.75;5072434;28;20076;-81
2021/05/14 11:29:41;;;;;;;0.57;0.30;;;;;;;17.03;44.15;98230.28;5071883;28;20048;-82
2021/05/14 11:32:33;;;;;;;0.20;0.20;;;;;;;17.04;45.01;98240.19;5067706;28;20080;-82
2021/05/14 11:35:03;;;;;;;1.50;0.25;;;;;;;16.86;45.47;98249.47;5073124;28;20053;-82
2021/05/14 11:37:32;;;;;;;0.68;0.40;;;;;;;16.59;45.21;98233.63;5072704;28;20428;-82
2021/05/14 11:40:05;;;;;;;1.55;0.50;;;;;;;16.70;44.80;98229.13;5072979;28;20060;-81
2021/05/14 11:42:31;;;;;;;0.43;0.30;;;;;;;16.89;46.39;98246.25;5073200;28;20084;-81
2021/05/14 11:45:23;;;;;;;0.43;0.30;;;;;;;17.11;50.62;98256.47;5072867;28;20060;-81
2021/05/14 11:47:52;;;;;;;0.82;0.35;;;;;;;16.92;54.34;98244.91;5071561;28;20059;-82
2021/05/14 11:50:26;;;;;;;1.75;0.55;;;;;;;16.47;56.66;98249.31;5072758;28;20515;-81
2021/05/14 11:52:54;;;;;;;5.15;1.15;;;;;;;16.05;61.63;98257.81;5072792;28;20048;-81